Time;durP1;ratioP1;P1;durP2;ratioP2;P2;SDS_P1;SDS_P2;PMS_P1;PMS_P2;Temp;Humidity;BMP_temperature;BMP_pressure;BME280_temperature;BME280_humidity;BME280_pressure;Samples;Min_cycle;Max_cycle;Signal;HPM_P1;HPM_P2
2023/01/15 00:02:52;;;;;;;15.68;2.70;;;8.50;99.90;;;;;;10538723;28;20076;-26
2023/01/15 00:07:54;;;;;;;;;;;8.50;99.90;;;;;;10539070;28;20052;-24
2023/01/15 00:12:57;;;;;;;12.10;2.00;;;8.30;99.90;;;;;;10537197;28;19965;-24
2023/01/15 00:18:00;;;;;;;14.95;1.95;;;8.60;99.90;;;;;;10528403;28;20097;-27
2023/01/15 00:23:02;;;;;;;;;;;8.20;99.90;;;;;;10538556;28;20452;-27
2023/01/15 00:28:05;;;;;;;11.82;1.75;;;8.40;99.90;;;;;;10537922;28;19920;-26
2023/01/15 00:33:08;;;;;;;11.43;1.80;;;8.20;99.90;;;;;;10533992;28;20773;-26
2023/01/15 00:38:10;;;;;;;14.65;3.03;;;8.20;99.90;;;;;;10536365;28;20504;-27
2023/01/15 00:43:12;;;;;;;11.50;1.92;;;8.40;99.90;;;;;;10533795;28;20041;-25
2023/01/15 00:48:17;;;;;;;13.73;2.28;;;8.40;99.90;;;;;;10529873;28;20086;-26
2023/01/15 00:53:19;;;;;;;17.08;2.72;;;8.20;99.90;;;;;;10512507;28;20545;-26
2023/01/15 00:58:21;;;;;;;15.85;2.85;;;8.20;99.90;;;;;;10543645;28;20051;-26
2023/01/15 01:03:25;;;;;;;20.58;2.35;;;8.20;99.90;;;;;;10544209;28;20086;-26
2023/01/15 01:08:28;;;;;;;12.05;2.30;;;8.20;99.90;;;;;;10536511;28;20044;-26
2023/01/15 01:13:29;;;;;;;18.75;2.08;;;8.50;99.90;;;;;;10530407;28;20048;-26
2023/01/15 01:18:32;;;;;;;13.52;1.48;;;8.60;99.90;;;;;;10534424;28;20064;-26
2023/01/15 01:23:34;;;;;;;;;;;8.50;99.90;;;;;;10532256;28;20078;-26
2023/01/15 01:28:36;;;;;;;11.95;2.30;;;8.40;99.90;;;;;;10521033;28;19924;-27
2023/01/15 01:33:39;;;;;;;8.98;2.05;;;8.70;99.90;;;;;;10537185;28;20525;-24
2023/01/15 01:38:41;;;;;;;;;;;8.30;99.90;;;;;;10522960;28;20075;-27
2023/01/15 01:43:56;;;;;;;8.57;1.65;;;8.30;99.90;;;;;;10524157;28;20326;-25
2023/01/15 01:49:02;;;;;;;8.95;1.65;;;8.60;99.90;;;;;;10527493;28;20120;-30
2023/01/15 01:54:04;;;;;;;16.25;1.98;;;8.30;99.90;;;;;;10526952;28;20463;-25
2023/01/15 01:59:07;;;;;;;13.80;2.75;;;8.10;99.90;;;;;;10522396;28;20078;-26
2023/01/15 02:04:11;;;;;;;16.33;1.88;;;8.30;99.90;;;;;;10526922;28;20068;-25
2023/01/15 02:09:13;;;;;;;15.10;2.42;;;8.40;99.90;;;;;;10513553;28;20052;-25
2023/01/15 02:14:21;;;;;;;15.07;1.65;;;8.30;99.90;;;;;;10519687;28;20547;-26
2023/01/15 02:19:44;;;;;;;12.52;1.90;;;8.20;99.90;;;;;;10511735;28;20047;-27
2023/01/15 02:25:00;;;;;;;13.77;2.75;;;8.30;99.90;;;;;;10520800;28;20048;-25
2023/01/15 02:30:09;;;;;;;18.50;2.47;;;8.10;99.90;;;;;;10512234;28;20501;-25
2023/01/15 02:35:17;;;;;;;10.68;1.85;;;8.10;99.90;;;;;;10526800;28;20116;-28
2023/01/15 02:40:20;;;;;;;11.35;1.50;;;8.20;99.90;;;;;;10533326;28;20040;-25
2023/01/15 02:45:27;;;;;;;11.05;1.77;;;8.10;99.90;;;;;;10527650;28;20052;-26
2023/01/15 02:50:36;;;;;;;9.57;1.63;;;8.20;99.90;;;;;;10520175;28;20089;-25
2023/01/15 02:55:43;;;;;;;17.10;2.55;;;8.10;99.90;;;;;;10529197;28;20159;-27
2023/01/15 03:00:50;;;;;;;11.02;1.67;;;7.90;99.90;;;;;;10523713;28;20048;-23
2023/01/15 03:05:57;;;;;;;8.85;2.20;;;8.20;99.90;;;;;;10521405;28;20068;-26
2023/01/15 03:11:05;;;;;;;40.65;2.03;;;8.10;99.90;;;;;;10530190;28;20055;-27
2023/01/15 03:21:43;;;;;;;7.07;2.08;;;8.00;99.90;;;;;;10513334;28;20048;-28
2023/01/15 03:26:45;;;;;;;18.13;1.95;;;8.30;99.90;;;;;;10522395;28;20139;-26
2023/01/15 03:31:48;;;;;;;9.00;1.55;;;8.20;99.90;;;;;;10536600;28;20040;-26
2023/01/15 03:36:50;;;;;;;13.40;1.63;;;8.30;99.90;;;;;;10530829;28;20110;-25
2023/01/15 03:42:05;;;;;;;12.85;2.00;;;8.50;99.90;;;;;;10524502;28;20094;-25
2023/01/15 03:47:20;;;;;;;12.65;1.83;;;7.90;99.90;;;;;;10536866;28;20123;-25
2023/01/15 03:52:27;;;;;;;7.47;1.70;;;8.20;99.90;;;;;;10536446;28;20059;-26
2023/01/15 03:57:34;;;;;;;6.57;1.38;;;8.30;99.90;;;;;;10535294;28;20044;-25
2023/01/15 04:02:39;;;;;;;11.10;1.83;;;8.10;99.90;;;;;;10534795;28;20052;-26
2023/01/15 04:07:42;;;;;;;16.77;1.52;;;8.00;99.90;;;;;;10521597;28;20683;-26
2023/01/15 04:12:43;;;;;;;15.20;3.45;;;8.40;99.90;;;;;;10531570;28;20087;-25
2023/01/15 04:17:47;;;;;;;13.73;1.80;;;8.30;99.90;;;;;;10533888;28;20474;-26
2023/01/15 04:22:48;;;;;;;;;;;8.10;99.90;;;;;;10533484;28;20074;-26
2023/01/15 04:27:53;;;;;;;10.07;1.73;;;7.90;99.90;;;;;;10532435;28;19946;-27
2023/01/15 04:32:57;;;;;;;8.55;1.85;;;8.00;99.90;;;;;;10541389;28;20488;-25
2023/01/15 04:38:00;;;;;;;11.07;3.38;;;8.20;99.90;;;;;;10528297;28;20093;-24
2023/01/15 04:48:22;;;;;;;10.38;1.35;;;7.80;99.90;;;;;;10530208;28;20260;-25
2023/01/15 04:53:26;;;;;;;15.07;2.40;;;8.10;99.90;;;;;;10533316;28;20079;-26
2023/01/15 04:58:27;;;;;;;;;;;7.80;99.90;;;;;;10535452;28;20100;-22
2023/01/15 05:03:31;;;;;;;9.82;1.30;;;8.00;99.90;;;;;;10536394;28;20002;-25
2023/01/15 05:08:33;;;;;;;6.63;1.35;;;8.20;99.90;;;;;;10537060;28;20093;-25
2023/01/15 05:13:36;;;;;;;17.00;1.27;;;7.70;96.60;;;;;;10536647;28;20055;-25
2023/01/15 05:18:40;;;;;;;14.30;1.60;;;7.60;97.90;;;;;;10533789;28;20048;-25
2023/01/15 05:23:41;;;;;;;8.13;1.58;;;7.50;96.00;;;;;;10532458;28;20086;-25
2023/01/15 05:28:44;;;;;;;6.68;1.25;;;7.70;93.30;;;;;;10534645;28;20496;-27
2023/01/15 05:33:48;;;;;;;6.07;1.63;;;7.70;97.30;;;;;;10533514;28;20080;-24
2023/01/15 05:38:51;;;;;;;9.85;1.63;;;7.70;92.90;;;;;;10528811;28;20048;-25
2023/01/15 05:43:53;;;;;;;10.77;1.55;;;7.30;95.70;;;;;;10515654;28;20457;-26
2023/01/15 05:49:00;;;;;;;14.23;1.73;;;7.40;96.10;;;;;;10531140;28;20066;-25
2023/01/15 05:54:03;;;;;;;11.10;1.25;;;7.40;95.40;;;;;;10526296;28;20052;-25
2023/01/15 05:59:05;;;;;;;8.38;1.48;;;7.70;93.10;;;;;;10532237;28;20453;-24
2023/01/15 06:04:12;;;;;;;14.82;2.20;;;7.40;99.90;;;;;;10527165;28;20048;-25
2023/01/15 06:09:14;;;;;;;19.63;1.73;;;7.50;99.90;;;;;;10534637;28;20052;-25
2023/01/15 06:14:17;;;;;;;13.40;1.60;;;7.20;97.20;;;;;;10519500;28;20554;-25
2023/01/15 06:19:20;;;;;;;13.70;2.33;;;7.70;98.70;;;;;;10510400;28;20048;-24
2023/01/15 06:24:22;;;;;;;9.60;1.60;;;7.60;99.90;;;;;;10523384;28;20048;-25
2023/01/15 06:29:24;;;;;;;10.18;1.25;;;7.50;99.90;;;;;;10512948;28;20142;-26
2023/01/15 06:34:27;;;;;;;16.27;2.25;;;7.50;99.40;;;;;;10522966;28;20060;-27
2023/01/15 06:39:29;;;;;;;;;;;7.60;99.90;;;;;;10517448;28;20497;-26
2023/01/15 06:49:54;;;;;;;9.77;2.15;;;7.50;99.90;;;;;;10503532;28;20090;-24
2023/01/15 06:54:56;;;;;;;12.27;1.65;;;7.60;99.90;;;;;;10499403;28;20048;-24
2023/01/15 06:59:58;;;;;;;10.45;1.45;;;7.30;99.90;;;;;;10505094;28;20416;-25
2023/01/15 07:15:13;;;;;;;21.52;2.53;;;7.80;99.90;;;;;;10585724;27;20114;-25
2023/01/15 07:20:17;;;;;;;7.97;2.15;;;7.50;99.90;;;;;;10602401;27;20048;-26
2023/01/15 07:25:19;;;;;;;18.30;2.38;;;7.90;99.90;;;;;;10589368;27;20514;-28
2023/01/15 07:30:22;;;;;;;16.15;1.70;;;7.30;99.90;;;;;;10580091;27;20097;-28
2023/01/15 07:35:24;;;;;;;18.33;1.65;;;7.80;99.90;;;;;;10579558;27;20055;-26
2023/01/15 07:40:26;;;;;;;9.13;1.33;;;7.70;99.90;;;;;;10573740;27;20093;-25
2023/01/15 07:50:49;;;;;;;8.55;1.45;;;7.80;99.90;;;;;;10586177;27;20056;-26
2023/01/15 07:55:51;;;;;;;11.48;1.58;;;8.00;99.90;;;;;;10597621;27;20387;-25
2023/01/15 08:00:54;;;;;;;7.28;1.40;;;7.80;99.90;;;;;;10603297;27;20043;-26
2023/01/15 08:05:56;;;;;;;19.73;1.80;;;7.60;99.90;;;;;;10602239;27;20476;-28
2023/01/15 08:16:22;;;;;;;11.70;1.83;;;7.90;99.90;;;;;;10596050;27;20047;-26
2023/01/15 08:21:24;;;;;;;6.30;1.63;;;7.50;99.90;;;;;;10595074;27;20142;-25
2023/01/15 08:26:26;;;;;;;15.25;2.55;;;7.40;99.90;;;;;;10564999;27;20052;-27
2023/01/15 08:31:30;;;;;;;15.77;1.90;;;7.40;99.90;;;;;;10565638;28;20051;-26
2023/01/15 08:36:32;;;;;;;15.73;3.05;;;7.50;99.90;;;;;;10562940;28;20052;-26
2023/01/15 08:41:33;;;;;;;9.50;1.50;;;7.60;99.90;;;;;;10541973;27;20130;-25
2023/01/15 08:46:36;;;;;;;10.07;1.45;;;7.50;99.90;;;;;;10542360;28;20060;-27
2023/01/15 08:51:38;;;;;;;;;;;7.60;99.90;;;;;;10571210;27;20087;-26
2023/01/15 08:56:40;;;;;;;8.48;1.55;;;7.40;99.90;;;;;;10563112;27;19924;-26
2023/01/15 09:01:44;;;;;;;12.60;1.77;;;8.10;99.90;;;;;;10564438;27;20079;-26
2023/01/15 09:06:47;;;;;;;14.30;2.03;;;7.70;99.90;;;;;;10556219;27;20051;-25
2023/01/15 09:11:49;;;;;;;;;;;8.40;99.90;;;;;;10567354;27;20124;-25
2023/01/15 09:16:52;;;;;;;14.30;1.80;;;8.50;99.90;;;;;;10564745;27;20427;-26
2023/01/15 09:21:54;;;;;;;;;;;8.10;99.90;;;;;;10570381;28;20134;-26
2023/01/15 09:26:56;;;;;;;22.98;2.10;;;8.00;99.90;;;;;;10564658;28;20509;-25
2023/01/15 09:31:59;;;;;;;7.20;1.42;;;8.00;99.90;;;;;;10574283;27;20039;-25
2023/01/15 09:37:01;;;;;;;14.80;2.05;;;8.30;99.90;;;;;;10576961;27;21688;-26
2023/01/15 09:42:19;;;;;;;17.20;1.77;;;8.10;99.90;;;;;;10569344;28;20071;-26
2023/01/15 09:47:29;;;;;;;12.13;2.20;;;8.20;99.90;;;;;;10560259;28;20051;-28
2023/01/15 09:52:50;;;;;;;10.85;1.83;;;8.50;99.90;;;;;;10545827;28;20140;-27
2023/01/15 09:57:55;;;;;;;13.25;1.80;;;8.40;99.90;;;;;;10560938;28;20070;-27
2023/01/15 10:03:04;;;;;;;12.90;2.45;;;8.80;99.90;;;;;;10556468;27;20442;-26
2023/01/15 10:08:12;;;;;;;15.43;1.73;;;9.00;99.90;;;;;;10560783;27;20051;-25
2023/01/15 10:13:26;;;;;;;5.25;1.10;;;8.50;99.90;;;;;;10538509;28;20116;-26
2023/01/15 10:18:29;;;;;;;11.23;1.40;;;8.50;99.90;;;;;;10553365;28;20128;-25
2023/01/15 10:23:39;;;;;;;12.55;1.75;;;8.40;99.90;;;;;;10556522;27;20495;-31
2023/01/15 10:28:57;;;;;;;9.35;1.40;;;8.40;99.90;;;;;;10567422;27;20040;-26
2023/01/15 10:34:21;;;;;;;14.40;1.98;;;8.50;99.90;;;;;;10551222;27;20075;-24
2023/01/15 10:39:30;;;;;;;6.40;1.30;;;8.40;99.90;;;;;;10558717;28;20067;-25
2023/01/15 10:44:42;;;;;;;22.08;2.17;;;8.50;99.90;;;;;;10562516;28;20137;-28
2023/01/15 10:49:48;;;;;;;8.50;1.50;;;8.80;99.90;;;;;;10558458;28;20044;-25
2023/01/15 10:54:53;;;;;;;22.30;1.88;;;9.10;99.90;;;;;;10569088;27;20498;-25
2023/01/15 10:59:58;;;;;;;7.68;1.30;;;8.50;99.90;;;;;;10568223;28;20047;-26
2023/01/15 11:05:03;;;;;;;19.27;2.45;;;10.60;97.20;;;;;;10559160;28;20075;-26
2023/01/15 11:10:11;;;;;;;37.38;2.38;;;10.50;99.90;;;;;;10566442;27;20048;-25
2023/01/15 11:20:46;;;;;;;10.43;1.90;;;9.00;99.90;;;;;;10565150;28;20043;-26
2023/01/15 11:25:50;;;;;;;9.20;1.17;;;8.80;99.90;;;;;;10558275;28;20555;-26
2023/01/15 11:30:54;;;;;;;5.75;1.67;;;9.10;99.90;;;;;;10556760;28;20100;-26
2023/01/15 11:35:59;;;;;;;13.38;2.35;;;8.50;99.90;;;;;;10568873;28;20067;-29
2023/01/15 11:41:04;;;;;;;14.43;2.03;;;8.90;99.90;;;;;;10555468;28;20419;-30
2023/01/15 11:51:28;;;;;;;11.93;1.48;;;9.00;99.90;;;;;;10551467;28;20388;-25
2023/01/15 11:56:33;;;;;;;11.30;1.45;;;8.50;99.90;;;;;;10555053;28;20047;-26
2023/01/15 12:01:38;;;;;;;11.85;1.77;;;9.10;99.90;;;;;;10557359;27;20557;-26
2023/01/15 12:06:41;;;;;;;10.32;1.83;;;9.50;99.90;;;;;;10568312;27;20104;-26
2023/01/15 12:11:59;;;;;;;8.02;1.67;;;8.80;99.90;;;;;;10558054;28;20441;-27
2023/01/15 12:17:13;;;;;;;13.82;2.28;;;8.60;99.90;;;;;;10558994;27;20407;-29
2023/01/15 12:22:28;;;;;;;11.23;2.63;;;8.90;99.90;;;;;;10564830;28;20065;-25
2023/01/15 12:27:54;;;;;;;15.85;1.85;;;8.60;99.90;;;;;;10560077;28;20131;-26
2023/01/15 12:33:07;;;;;;;13.60;1.63;;;8.60;99.90;;;;;;10562419;27;20055;-26
2023/01/15 12:38:17;;;;;;;18.52;2.95;;;8.70;99.90;;;;;;10567673;27;20092;-26
2023/01/15 12:48:50;;;;;;;11.85;1.95;;;8.90;99.90;;;;;;10572542;28;20118;-26
2023/01/15 12:53:59;;;;;;;15.45;3.17;;;8.90;99.90;;;;;;10551063;28;20407;-25
2023/01/15 12:59:07;;;;;;;12.32;3.10;;;8.60;99.90;;;;;;10546245;28;20051;-29
2023/01/15 13:04:17;;;;;;;21.15;2.30;;;8.70;99.90;;;;;;10550359;27;20093;-28
2023/01/15 13:09:34;;;;;;;15.43;1.95;;;8.90;99.90;;;;;;10564946;28;20044;-25
2023/01/15 13:14:36;;;;;;;14.40;1.92;;;8.60;99.90;;;;;;10555319;27;20408;-27
2023/01/15 13:19:48;;;;;;;25.75;2.95;;;9.10;99.90;;;;;;10565274;28;20457;-25
2023/01/15 13:25:22;;;;;;;10.63;1.80;;;9.00;99.90;;;;;;10567345;28;20291;-26
2023/01/15 13:30:38;;;;;;;15.73;1.70;;;9.40;99.90;;;;;;10565713;28;20093;-27
2023/01/15 13:35:46;;;;;;;10.50;1.50;;;9.30;99.90;;;;;;10568244;27;20093;-25
2023/01/15 13:40:52;;;;;;;14.15;2.83;;;9.40;99.90;;;;;;10570227;28;20039;-26
2023/01/15 13:45:55;;;;;;;23.13;3.90;;;9.10;99.90;;;;;;10553482;28;20077;-29
2023/01/15 13:50:59;;;;;;;10.55;1.58;;;9.60;99.90;;;;;;10547831;27;20078;-26
2023/01/15 13:56:05;;;;;;;9.38;2.22;;;9.40;99.90;;;;;;10545958;28;20075;-27
2023/01/15 14:01:22;;;;;;;19.27;3.17;;;9.40;99.90;;;;;;10543864;28;20112;-27
2023/01/15 14:06:34;;;;;;;16.05;2.40;;;8.50;99.90;;;;;;10554017;27;20843;-27
2023/01/15 14:11:39;;;;;;;9.63;1.80;;;8.70;99.90;;;;;;10559372;28;20055;-27
2023/01/15 14:16:53;;;;;;;12.70;1.33;;;9.20;99.90;;;;;;10544577;28;20052;-26
2023/01/15 14:22:09;;;;;;;17.23;1.92;;;8.80;99.90;;;;;;10548129;28;20130;-26
2023/01/15 14:27:22;;;;;;;16.17;1.98;;;8.50;99.90;;;;;;10562462;28;20135;-27
2023/01/15 14:32:38;;;;;;;18.25;3.40;;;9.00;99.90;;;;;;10544180;27;20071;-26
2023/01/15 14:37:47;;;;;;;13.20;2.30;;;8.90;99.90;;;;;;10549405;28;20105;-27
2023/01/15 14:43:01;;;;;;;21.02;2.35;;;9.10;99.90;;;;;;10568034;28;20093;-26
2023/01/15 14:48:06;;;;;;;19.08;2.55;;;8.70;99.90;;;;;;10568638;28;20035;-26
2023/01/15 14:53:33;;;;;;;11.60;1.75;;;9.10;99.90;;;;;;10562370;28;20044;-26
2023/01/15 14:58:47;;;;;;;14.20;1.95;;;8.80;99.90;;;;;;10556434;28;20460;-26
2023/01/15 15:03:53;;;;;;;14.88;2.33;;;9.00;99.90;;;;;;10569574;28;20046;-25
2023/01/15 15:09:01;;;;;;;10.30;2.05;;;8.70;99.90;;;;;;10558775;28;20448;-27
2023/01/15 15:14:06;;;;;;;13.68;2.35;;;9.00;99.90;;;;;;10558454;28;20082;-26
2023/01/15 15:19:15;;;;;;;11.63;1.73;;;8.70;99.90;;;;;;10555872;28;20048;-27
2023/01/15 15:24:22;;;;;;;16.45;2.15;;;8.90;99.90;;;;;;10552584;28;20127;-26
2023/01/15 15:29:26;;;;;;;10.85;2.25;;;8.80;99.90;;;;;;10540557;28;20047;-27
2023/01/15 15:34:30;;;;;;;;;;;8.90;99.90;;;;;;10576234;27;20904;-27
2023/01/15 15:39:39;;;;;;;9.10;1.92;;;8.50;99.90;;;;;;10560350;28;19919;-26
2023/01/15 15:50:19;;;;;;;14.05;1.60;;;8.80;99.90;;;;;;10577872;27;20047;-24
2023/01/15 15:55:22;;;;;;;;;;;8.60;99.90;;;;;;10554619;28;20404;-28
2023/01/15 16:00:30;;;;;;;14.77;1.85;;;8.90;99.90;;;;;;10557996;27;20013;-25
2023/01/15 16:05:32;;;;;;;12.32;1.75;;;8.80;99.90;;;;;;10556456;28;20411;-32
2023/01/15 16:10:47;;;;;;;14.25;3.17;;;9.00;99.90;;;;;;10572493;27;20115;-25
2023/01/15 16:16:16;;;;;;;20.17;2.47;;;8.60;99.90;;;;;;10477223;28;20048;-25
2023/01/15 16:21:48;;;;;;;16.95;1.80;;;8.50;99.90;;;;;;10490911;28;20052;-25
2023/01/15 16:27:20;;;;;;;9.20;2.05;;;8.30;99.90;;;;;;10485574;28;20045;-25
2023/01/15 16:32:47;;;;;;;10.25;1.85;;;8.10;99.90;;;;;;10485883;28;20093;-26
2023/01/15 16:38:39;;;;;;;7.10;1.70;;;8.40;99.90;;;;;;10492167;28;20049;-26
2023/01/15 16:44:14;;;;;;;6.85;1.60;;;7.80;99.90;;;;;;10487682;28;20072;-27
2023/01/15 16:50:11;;;;;;;6.15;1.45;;;7.80;99.90;;;;;;10502033;28;20398;-25
2023/01/15 16:55:55;;;;;;;7.32;1.42;;;9.30;99.90;;;;;;10485626;28;20495;-27
2023/01/15 17:01:28;;;;;;;7.07;1.45;;;7.70;99.90;;;;;;10490161;28;20056;-27
2023/01/15 17:06:32;;;;;;;12.13;2.08;;;7.50;99.90;;;;;;10474388;28;20052;-26
2023/01/15 17:11:37;;;;;;;12.05;1.30;;;7.20;99.90;;;;;;10491505;28;20143;-36
2023/01/15 17:22:39;;;;;;;7.68;1.30;;;7.30;99.90;;;;;;10583342;27;20048;-25
2023/01/15 17:28:18;;;;;;;13.90;1.95;;;6.90;99.90;;;;;;10581439;27;20548;-24
2023/01/15 17:33:23;;;;;;;7.65;1.60;;;6.60;99.90;;;;;;10577889;27;20051;-27
2023/01/15 17:39:00;;;;;;;6.57;1.30;;;6.80;99.90;;;;;;10576480;27;20052;-27
2023/01/15 17:44:54;;;;;;;7.72;2.03;;;7.10;99.90;;;;;;10583415;27;20052;-26
2023/01/15 17:50:06;;;;;;;;;;;6.70;99.90;;;;;;10583214;27;20105;-24
2023/01/15 18:07:00;;;;;;;9.85;1.40;;;6.70;99.90;;;;;;10562717;27;20043;-23
2023/01/15 18:12:21;;;;;;;10.93;2.08;;;6.70;99.90;;;;;;10574166;27;20059;-27
2023/01/15 18:17:37;;;;;;;9.77;1.60;;;6.90;99.90;;;;;;10576215;27;20073;-26
2023/01/15 18:22:43;;;;;;;7.75;1.38;;;6.30;99.90;;;;;;10565335;27;20075;-25
2023/01/15 18:27:56;;;;;;;8.70;1.42;;;6.60;99.90;;;;;;10559955;27;20048;-25
2023/01/15 18:33:13;;;;;;;8.30;1.80;;;6.20;99.90;;;;;;10560235;27;20048;-26
2023/01/15 18:38:27;;;;;;;2.08;0.60;;;6.70;99.90;;;;;;10574524;27;20054;-27
2023/01/15 18:49:01;;;;;;;6.45;1.10;;;6.00;99.90;;;;;;10565777;27;20480;-27
2023/01/15 18:54:11;;;;;;;1.67;0.73;;;6.40;99.90;;;;;;10567230;27;20463;-26
2023/01/15 18:59:29;;;;;;;3.80;1.25;;;5.90;99.90;;;;;;10566702;27;20858;-25
2023/01/15 19:04:38;;;;;;;3.90;1.58;;;6.30;99.90;;;;;;10567294;27;20073;-25
2023/01/15 19:09:42;;;;;;;5.95;1.48;;;6.70;99.90;;;;;;10571403;28;20044;-26
2023/01/15 19:20:12;;;;;;;1.33;0.73;;;6.90;99.90;;;;;;10541834;28;20058;-26
2023/01/15 19:25:29;;;;;;;1.45;0.93;;;7.20;99.90;;;;;;10553744;28;20094;-28
2023/01/15 19:31:34;;;;;;;3.72;1.02;;;6.80;99.90;;;;;;10564072;28;20058;-27
2023/01/15 19:36:16;;;;;;;4.28;1.38;;;5.70;99.90;;;;;;10580631;28;20055;-25
2023/01/15 19:57:28;;;;;;;2.75;1.20;;;8.60;99.90;;;;;;10560645;28;20051;-26
2023/01/15 20:02:32;;;;;;;1.23;0.70;;;10.10;99.90;;;;;;10557738;28;20051;-26
2023/01/15 20:07:45;;;;;;;5.88;1.02;;;7.10;99.90;;;;;;10552260;28;20052;-25
2023/01/15 20:18:08;;;;;;;1.58;0.80;;;6.50;99.90;;;;;;10561842;28;20084;-25
2023/01/15 20:23:10;;;;;;;3.08;0.90;;;6.40;99.90;;;;;;10560217;28;20416;-27
2023/01/15 20:28:13;;;;;;;2.58;0.70;;;5.80;99.90;;;;;;10573352;27;20048;-26
2023/01/15 20:33:15;;;;;;;;;;;6.10;99.90;;;;;;10573055;27;20051;-28
2023/01/15 20:38:17;;;;;;;0.50;0.50;;;5.90;99.90;;;;;;10563607;27;19941;-26
2023/01/15 20:54:01;;;;;;;2.55;1.02;;;7.20;99.90;;;;;;10543471;27;20051;-25
2023/01/15 20:59:05;;;;;;;3.25;1.08;;;6.70;99.90;;;;;;10577027;27;20055;-25
2023/01/15 21:04:08;;;;;;;2.50;1.30;;;6.60;99.90;;;;;;10574619;27;20043;-26
2023/01/15 21:09:10;;;;;;;4.60;2.08;;;5.90;99.90;;;;;;10567824;27;20457;-25
2023/01/15 21:14:13;;;;;;;2.50;1.20;;;7.70;99.90;;;;;;10566460;27;20059;-26
2023/01/15 21:19:15;;;;;;;;;;;7.80;99.90;;;;;;10576816;27;20464;-26
2023/01/15 21:24:17;;;;;;;5.53;1.55;;;7.50;99.90;;;;;;10573405;27;19973;-37
2023/01/15 21:29:21;;;;;;;4.75;2.28;;;8.60;99.90;;;;;;10583657;27;20074;-25
2023/01/15 21:34:23;;;;;;;9.00;4.38;;;8.80;99.90;;;;;;10577898;27;20043;-26
2023/01/15 21:39:25;;;;;;;7.80;2.90;;;10.80;99.90;;;;;;10572094;27;20094;-26
2023/01/15 21:44:33;;;;;;;7.05;3.53;;;11.00;99.90;;;;;;10582365;27;20047;-26
2023/01/15 21:49:35;;;;;;;4.85;2.30;;;11.20;99.90;;;;;;10576302;27;20054;-25
2023/01/15 21:54:37;;;;;;;7.00;3.33;;;11.70;99.90;;;;;;10564012;27;20142;-27
2023/01/15 21:59:41;;;;;;;4.07;2.20;;;12.00;99.90;;;;;;10563192;28;20043;-27
2023/01/15 22:04:43;;;;;;;8.80;2.78;;;12.50;99.90;;;;;;10584137;27;20073;-25
2023/01/15 22:09:45;;;;;;;9.65;4.55;;;11.00;99.90;;;;;;10556833;27;20511;-27
2023/01/15 22:14:49;;;;;;;5.38;3.05;;;11.70;99.90;;;;;;10572514;27;20209;-29
2023/01/15 22:19:50;;;;;;;5.03;2.50;;;11.80;99.90;;;;;;10569127;27;20044;-23
2023/01/15 22:24:52;;;;;;;4.47;2.40;;;11.40;99.90;;;;;;10566553;27;20096;-28
2023/01/15 22:29:56;;;;;;;10.95;4.93;;;11.10;99.90;;;;;;10572274;27;20050;-26
2023/01/15 22:34:57;;;;;;;7.07;3.20;;;11.50;99.90;;;;;;10568140;27;20095;-25
2023/01/15 22:39:59;;;;;;;8.88;3.03;;;10.90;99.90;;;;;;10564083;27;20039;-26
2023/01/15 22:45:03;;;;;;;11.07;5.72;;;11.80;99.90;;;;;;10555155;27;20464;-24
2023/01/15 22:50:05;;;;;;;4.72;2.00;;;11.90;99.90;;;;;;10563202;27;20071;-27
2023/01/15 22:55:08;;;;;;;10.02;4.28;;;10.90;99.90;;;;;;10556946;27;20051;-25
2023/01/15 23:00:13;;;;;;;7.70;3.33;;;11.80;99.90;;;;;;10571608;27;20491;-27
2023/01/15 23:05:15;;;;;;;11.95;5.35;;;11.70;99.90;;;;;;10548168;28;20048;-27
2023/01/15 23:10:17;;;;;;;2.47;0.93;;;12.50;99.90;;;;;;10555753;28;20617;-26
2023/01/15 23:15:20;;;;;;;9.52;5.18;;;11.40;99.90;;;;;;10565546;28;20060;-23
2023/01/15 23:20:22;;;;;;;6.78;3.65;;;12.00;99.90;;;;;;10569348;28;20098;-25
2023/01/15 23:25:24;;;;;;;4.78;2.40;;;10.20;99.90;;;;;;10580741;28;20051;-26
2023/01/15 23:30:27;;;;;;;9.30;4.22;;;11.00;99.90;;;;;;10578551;28;20054;-26
2023/01/15 23:35:29;;;;;;;5.10;2.45;;;12.40;93.40;;;;;;10574059;28;20051;-25
2023/01/15 23:40:30;;;;;;;5.68;1.88;;;10.50;99.90;;;;;;10563004;28;20059;-24
2023/01/15 23:50:56;;;;;;;7.03;3.17;;;10.60;99.90;;;;;;10560664;28;20040;-36
2023/01/15 23:55:58;;;;;;;8.85;3.92;;;12.30;99.90;;;;;;10568432;28;20055;-25
